Terminal Aerodrome Forecast
Issued by NWS

Home | Current Version | Previous Version | Text Only | Print | Product List | Glossary On
Versions: 1 2 3 4 5 6 7 8 9 10 11 12 13 14 15 16 17 18 19 20 21 22 23 24 25 26
248
FTUS41 KBUF 121813 AAD
TAFIAG
TAF AMD
KIAG 121813Z 1218/1318 24019G28KT 1/4SM +SN BKN008 OVC025
      TEMPO 1218/1220 2SM -SN BKN015
     FM130100 28015G30KT 1/4SM SQ BLSN OVC015
     FM130200 31016G25KT 5SM BLSN VCSH OVC020
     FM130500 32018G27KT P6SM OVC020
     FM130900 32017G25KT P6SM VCSH OVC020
     FM131600 32019G25KT 4SM BLSN VCSH OVC020=

USA.gov is the U.S. government's official web portal to all federal, state and local government web resources and services.